MST,Max TemperatureF,Mean TemperatureF,Min TemperatureF,Max Dew PointF,MeanDew PointF,Min DewpointF,Max Humidity, Mean Humidity, Min Humidity, Max Sea Level PressureIn, Mean Sea Level PressureIn, Min Sea Level PressureIn, Max VisibilityMiles, Mean VisibilityMiles, Min VisibilityMiles, Max Wind SpeedMPH, Mean Wind SpeedMPH, Max Gust SpeedMPH,PrecipitationIn, CloudCover, Events, WindDirDegrees
2013-2-1,49,34,19,29,24,15,92,66,39,30.22,30.12,30.01,10,10,10,25,8,35,T,4,,303
2013-2-2,52,37,21,25,17,11,92,56,20,30.35,30.29,30.21,10,10,10,28,8,36,0.00,0,,318
2013-2-3,54,33,12,19,14,9,88,54,19,30.28,30.07,29.89,10,10,10,20,5,24,0.00,0,,289
2013-2-4,54,35,15,20,16,12,80,51,22,29.99,29.92,29.83,10,10,10,26,10,32,0.00,0,,291
2013-2-5,54,38,21,22,18,15,77,51,24,30.07,29.92,29.80,10,10,10,16,6,21,0.00,1,,183
2013-2-6,52,41,29,28,22,15,85,55,24,30.09,29.86,29.74,10,10,10,22,9,29,T,4,,345
2013-2-7,50,36,21,26,18,9,96,58,20,30.21,30.12,30.04,10,10,10,13,6,15,0.00,1,,234
2013-2-8,53,34,15,19,16,10,84,52,19,30.05,29.88,29.71,10,10,10,44,7,128,0.00,0,,88
2013-2-9,42,32,21,27,23,18,92,65,38,29.82,29.66,29.56,10,5,0,22,11,30,0.05,6,Fog-Snow,348
2013-2-10,30,22,14,25,18,8,92,75,58,30.17,29.84,29.57,10,7,1,36,18,43,T,5,Snow,325
2013-2-11,31,18,4,12,7,2,96,68,39,30.27,30.19,30.12,10,10,10,14,5,16,0.00,0,,261
2013-2-12,41,23,4,15,10,1,87,59,30,30.17,30.12,30.03,10,10,10,20,11,25,0.00,1,,293
2013-2-13,48,35,21,30,21,15,82,58,34,30.03,29.97,29.88,10,9,2,32,17,43,T,3,Snow,288
2013-2-14,32,24,15,28,20,11,92,73,53,30.41,30.19,30.01,10,8,1,31,13,39,0.01,6,Snow,323
2013-2-15,32,24,16,20,17,12,91,75,58,30.43,30.36,30.28,10,10,7,26,7,33,T,6,Snow,319
2013-2-16,54,38,21,21,19,17,84,55,26,30.25,30.07,29.86,10,10,10,22,13,29,0.00,2,,288
2013-2-17,60,44,28,26,16,9,69,42,14,29.84,29.69,29.54,10,10,10,31,15,44,0.00,1,,286
2013-2-18,37,26,15,25,19,12,84,67,49,30.20,30.02,29.82,10,8,1,16,10,18,T,6,Snow,313
2013-2-19,43,24,5,23,14,2,96,68,39,30.22,30.09,29.96,10,10,10,28,14,32,0.00,0,,116
2013-2-20,28,22,15,20,14,7,81,69,57,29.94,29.86,29.71,10,10,2,23,15,33,0.00,6,Snow,116
2013-2-21,26,19,12,19,16,12,92,80,68,30.01,29.89,29.78,10,5,1,16,7,20,0.07,8,Snow,79
2013-2-22,39,26,12,21,15,10,92,65,38,30.04,29.95,29.83,10,8,0,15,6,20,0.00,4,Fog,293
2013-2-23,48,31,13,25,17,9,80,55,29,29.83,29.73,29.62,10,10,10,23,8,31,0.00,3,,288
2013-2-24,33,27,20,28,24,15,92,79,66,30.19,29.95,29.74,10,6,1,26,14,32,0.06,8,Snow,352
2013-2-25,39,24,8,21,14,6,92,68,44,30.21,30.07,29.91,10,10,10,10,5,12,0.00,0,,157
2013-2-26,38,26,14,28,22,11,88,70,52,30.17,29.97,29.86,10,6,0,28,15,44,0.01,5,Fog-Snow,331
2013-2-27,39,29,19,20,15,12,84,59,33,30.33,30.27,30.19,10,10,10,21,10,26,0.00,1,,309
2013-2-28,46,30,13,18,13,8,84,56,27,30.32,30.27,30.19,10,10,10,21,8,31,0.00,3,,308